createdAt,value
2018-04-15T00:00:37.538Z,8.00
2018-04-15T00:01:37.511Z,8.00
2018-04-15T00:02:37.494Z,8.00
2018-04-15T00:03:37.478Z,8.00
2018-04-15T00:04:37.478Z,8.00
2018-04-15T00:05:37.449Z,8.00
2018-04-15T00:06:37.449Z,8.00
2018-04-15T00:07:37.409Z,8.00
2018-04-15T00:08:37.389Z,8.00
2018-04-15T00:09:37.377Z,8.00
2018-04-15T00:10:37.366Z,8.00
2018-04-15T00:11:37.344Z,8.00
2018-04-15T00:12:37.320Z,8.00
2018-04-15T00:13:37.310Z,8.00
2018-04-15T00:14:37.289Z,8.00
2018-04-15T00:15:37.278Z,8.00
2018-04-15T00:16:37.253Z,8.00
2018-04-15T00:17:37.233Z,8.00
2018-04-15T00:18:37.229Z,8.00
2018-04-15T00:19:37.201Z,8.00
2018-04-15T00:20:37.189Z,8.00
2018-04-15T00:21:37.167Z,8.00
2018-04-15T00:22:37.150Z,8.00
2018-04-15T00:23:37.133Z,8.00
2018-04-15T00:24:37.122Z,8.00
2018-04-15T00:25:37.099Z,8.00
2018-04-15T00:26:37.142Z,8.00
2018-04-15T00:27:37.071Z,8.00
2018-04-15T00:28:37.052Z,8.00
2018-04-15T00:29:37.033Z,8.00
2018-04-15T00:30:37.010Z,8.00
2018-04-15T00:31:36.998Z,8.00
2018-04-15T00:32:36.986Z,8.00
2018-04-15T00:33:36.961Z,8.00
2018-04-15T00:34:36.949Z,8.00
2018-04-15T00:35:36.946Z,8.00
2018-04-15T00:36:36.912Z,8.00
2018-04-15T00:37:36.893Z,8.00
2018-04-15T00:38:36.878Z,8.00
2018-04-15T00:39:36.857Z,8.00
2018-04-15T00:40:36.839Z,8.00
2018-04-15T00:41:36.821Z,8.00
2018-04-15T00:42:36.806Z,8.00
2018-04-15T00:43:36.787Z,8.00
2018-04-15T00:44:36.770Z,8.00
2018-04-15T00:45:36.856Z,8.00
2018-04-15T00:46:36.734Z,8.00
2018-04-15T00:47:36.717Z,8.00
2018-04-15T00:48:36.704Z,8.00
2018-04-15T00:49:36.684Z,8.00
2018-04-15T00:50:36.677Z,8.00
2018-04-15T00:51:36.653Z,8.00
2018-04-15T00:52:36.633Z,8.00
2018-04-15T00:53:36.613Z,8.00
2018-04-15T00:54:36.600Z,8.00
2018-04-15T00:55:36.584Z,8.00
2018-04-15T00:56:36.564Z,8.00
2018-04-15T00:57:36.545Z,8.00
2018-04-15T00:58:36.529Z,8.00
2018-04-15T00:59:36.520Z,8.00
2018-04-15T01:00:36.503Z,8.00
2018-04-15T01:01:36.497Z,8.00
2018-04-15T01:02:36.465Z,8.00
2018-04-15T01:03:36.443Z,8.00
2018-04-15T01:04:36.430Z,8.00
2018-04-15T01:05:36.408Z,8.00
2018-04-15T01:06:36.394Z,8.00
2018-04-15T01:07:36.377Z,8.00
2018-04-15T01:08:36.360Z,8.00
2018-04-15T01:09:36.443Z,8.00
2018-04-15T01:10:36.330Z,8.00
2018-04-15T01:11:36.307Z,8.00
2018-04-15T01:12:36.297Z,8.00
2018-04-15T01:13:36.274Z,8.00
2018-04-15T01:14:36.257Z,8.00
2018-04-15T01:15:36.249Z,8.00
2018-04-15T01:16:36.225Z,8.00
2018-04-15T01:17:36.206Z,8.00
2018-04-15T01:18:36.187Z,8.00
2018-04-15T01:19:36.182Z,8.00
2018-04-15T01:20:36.153Z,8.00
2018-04-15T01:21:36.136Z,8.00
2018-04-15T01:22:36.120Z,8.00
2018-04-15T01:23:36.111Z,8.00
2018-04-15T01:24:36.084Z,8.00
2018-04-15T01:25:36.090Z,8.00
2018-04-15T01:26:36.059Z,8.00
2018-04-15T01:27:36.034Z,8.00
2018-04-15T01:28:36.024Z,8.00
2018-04-15T01:29:35.997Z,8.00
2018-04-15T01:30:36.001Z,8.00
2018-04-15T01:31:35.963Z,8.00
2018-04-15T01:32:35.954Z,8.00
2018-04-15T01:33:35.931Z,8.00
2018-04-15T01:34:35.914Z,8.00
2018-04-15T01:35:35.893Z,8.00
2018-04-15T01:36:35.878Z,8.00
2018-04-15T01:37:35.865Z,8.00
2018-04-15T01:38:35.850Z,8.00
2018-04-15T01:39:35.826Z,8.00
2018-04-15T01:40:35.812Z,8.00
2018-04-15T01:41:35.792Z,8.00
2018-04-15T01:42:35.777Z,8.00
2018-04-15T01:43:35.762Z,8.00
2018-04-15T01:44:35.740Z,8.00
2018-04-15T01:45:35.719Z,8.00
2018-04-15T01:46:35.704Z,8.00
2018-04-15T01:47:35.684Z,8.00
2018-04-15T01:48:35.669Z,8.00
2018-04-15T01:49:35.651Z,8.00
2018-04-15T01:50:35.642Z,8.00
2018-04-15T01:51:35.624Z,8.00
2018-04-15T01:52:35.597Z,8.00
2018-04-15T01:53:35.579Z,8.00
2018-04-15T01:54:35.563Z,8.00
2018-04-15T01:55:35.577Z,8.00
2018-04-15T01:56:35.529Z,8.00
2018-04-15T01:57:35.525Z,8.00
2018-04-15T01:58:35.505Z,8.00
2018-04-15T01:59:35.477Z,8.00
2018-04-15T02:00:35.484Z,8.00
2018-04-15T02:01:35.447Z,8.00
2018-04-15T02:02:35.427Z,8.00
2018-04-15T02:03:35.410Z,8.00
2018-04-15T02:04:35.391Z,8.00
2018-04-15T02:05:35.375Z,8.00
2018-04-15T02:06:35.362Z,8.00
2018-04-15T02:07:35.342Z,8.00
2018-04-15T02:08:35.333Z,8.00
2018-04-15T02:09:35.307Z,8.00
2018-04-15T02:10:35.294Z,8.00
2018-04-15T02:11:35.271Z,8.00
2018-04-15T02:12:35.256Z,8.00
2018-04-15T02:13:35.237Z,8.00
2018-04-15T02:14:35.221Z,8.00
2018-04-15T02:15:35.214Z,8.00
2018-04-15T02:16:35.187Z,8.00
2018-04-15T02:17:35.169Z,8.00
2018-04-15T02:18:35.151Z,8.00
2018-04-15T02:19:35.137Z,8.00
2018-04-15T02:20:35.124Z,8.00
2018-04-15T02:21:35.102Z,8.00
2018-04-15T02:22:35.087Z,8.00
2018-04-15T02:23:35.069Z,8.00
2018-04-15T02:24:35.119Z,8.00
2018-04-15T02:25:35.032Z,8.00
2018-04-15T02:26:35.017Z,8.00
2018-04-15T02:27:35.054Z,8.00
2018-04-15T02:28:34.986Z,8.00
2018-04-15T02:29:34.966Z,8.00
2018-04-15T02:30:34.951Z,8.00
2018-04-15T02:31:34.931Z,8.00
2018-04-15T02:32:34.918Z,8.00
2018-04-15T02:33:34.906Z,8.00
2018-04-15T02:34:34.879Z,8.00
2018-04-15T02:35:34.866Z,8.00
2018-04-15T02:36:34.850Z,8.00
2018-04-15T02:37:34.828Z,8.00
2018-04-15T02:38:34.817Z,8.00
2018-04-15T02:39:34.797Z,8.00
2018-04-15T02:40:34.776Z,8.00
2018-04-15T02:41:34.758Z,8.00
2018-04-15T02:42:34.746Z,8.00
2018-04-15T02:43:34.830Z,8.00
2018-04-15T02:44:34.710Z,8.00
2018-04-15T02:45:34.709Z,8.00
2018-04-15T02:46:34.677Z,8.00
2018-04-15T02:47:34.667Z,8.00
2018-04-15T02:48:34.644Z,8.00
2018-04-15T02:49:34.624Z,8.00
2018-04-15T02:50:34.614Z,8.00
2018-04-15T02:51:34.593Z,8.00
2018-04-15T02:52:34.573Z,8.00
2018-04-15T02:53:34.555Z,8.00
2018-04-15T02:54:34.556Z,8.00
2018-04-15T02:55:34.526Z,8.00
2018-04-15T02:56:34.504Z,8.00
2018-04-15T02:57:34.489Z,8.00
2018-04-15T02:58:34.484Z,8.00
2018-04-15T02:59:34.576Z,8.00
2018-04-15T03:00:34.442Z,8.00
2018-04-15T03:01:34.434Z,8.00
2018-04-15T03:02:34.443Z,8.00
2018-04-15T03:03:34.388Z,8.00
2018-04-15T03:04:34.380Z,8.00
2018-04-15T03:05:34.351Z,8.00
2018-04-15T03:06:34.336Z,8.00
2018-04-15T03:07:34.321Z,8.00
2018-04-15T03:08:34.308Z,8.00
2018-04-15T03:09:34.284Z,8.00
2018-04-15T03:10:34.285Z,8.00
2018-04-15T03:11:34.251Z,8.00
2018-04-15T03:12:34.233Z,8.00
2018-04-15T03:13:34.215Z,8.00
2018-04-15T03:14:34.226Z,8.00
2018-04-15T03:15:34.181Z,8.00
2018-04-15T03:16:34.166Z,8.00
2018-04-15T03:17:34.151Z,8.00
2018-04-15T03:18:34.134Z,8.00
2018-04-15T03:19:34.113Z,8.00
2018-04-15T03:20:34.101Z,8.00
2018-04-15T03:21:34.098Z,8.00
2018-04-15T03:22:34.064Z,8.00
2018-04-15T03:23:34.043Z,8.00
2018-04-15T03:24:34.040Z,8.00
2018-04-15T03:25:34.011Z,8.00
2018-04-15T03:26:34.041Z,8.00
2018-04-15T03:27:33.980Z,8.00
2018-04-15T03:28:33.978Z,8.00
2018-04-15T03:29:33.959Z,8.00
2018-04-15T03:30:33.931Z,8.00
2018-04-15T03:31:33.915Z,8.00
2018-04-15T03:32:33.889Z,8.00
2018-04-15T03:33:33.879Z,8.00
2018-04-15T03:34:33.857Z,8.00
2018-04-15T03:35:33.840Z,8.00
2018-04-15T03:36:33.822Z,8.00
2018-04-15T03:37:33.813Z,8.00
2018-04-15T03:38:33.787Z,8.00
2018-04-15T03:39:33.773Z,8.00
2018-04-15T03:40:33.767Z,8.00
2018-04-15T03:41:33.742Z,8.00
2018-04-15T03:42:33.809Z,8.00
2018-04-15T03:43:33.708Z,8.00
2018-04-15T03:44:33.687Z,8.00
2018-04-15T03:45:33.677Z,8.00
2018-04-15T03:46:33.656Z,8.00
2018-04-15T03:47:33.638Z,8.00
2018-04-15T03:48:33.617Z,8.00
2018-04-15T03:49:33.599Z,8.00
2018-04-15T03:50:33.582Z,8.00
2018-04-15T03:51:33.566Z,8.00
2018-04-15T03:52:33.556Z,8.00
2018-04-15T03:53:33.530Z,8.00
2018-04-15T03:54:33.515Z,8.00
2018-04-15T03:55:33.501Z,8.00
2018-04-15T03:56:33.481Z,8.00
2018-04-15T03:57:33.463Z,8.00
2018-04-15T03:58:33.445Z,8.00
2018-04-15T03:59:33.428Z,8.00
2018-04-15T04:00:33.410Z,8.00
2018-04-15T04:01:33.450Z,8.00
2018-04-15T04:02:33.394Z,8.00
2018-04-15T04:03:33.360Z,12.00
2018-04-15T04:04:33.344Z,12.00
2018-04-15T04:05:33.325Z,12.00
2018-04-15T04:06:33.319Z,8.00
2018-04-15T04:07:33.323Z,8.00
2018-04-15T04:08:33.273Z,8.00
2018-04-15T04:09:33.358Z,8.00
2018-04-15T04:10:33.237Z,8.00
2018-04-15T04:11:33.223Z,12.00
2018-04-15T04:12:33.254Z,12.00
2018-04-15T04:13:33.182Z,12.00
2018-04-15T04:14:33.166Z,12.00
2018-04-15T04:15:33.153Z,12.00
2018-04-15T04:16:33.133Z,12.00
2018-04-15T04:17:33.112Z,12.00
2018-04-15T04:18:33.095Z,12.00
2018-04-15T04:19:33.076Z,12.00
2018-04-15T04:20:33.069Z,12.00
2018-04-15T04:21:33.060Z,16.00
2018-04-15T04:22:33.026Z,16.00
2018-04-15T04:23:33.007Z,12.00
2018-04-15T04:24:32.990Z,16.00
2018-04-15T04:25:32.982Z,16.00
2018-04-15T04:26:32.959Z,16.00
2018-04-15T04:27:32.935Z,20.00
2018-04-15T04:28:33.017Z,20.00
2018-04-15T04:29:32.897Z,20.00
2018-04-15T04:30:32.882Z,28.00
2018-04-15T04:31:32.880Z,32.00
2018-04-15T04:32:32.845Z,32.00
2018-04-15T04:33:32.826Z,36.00
2018-04-15T04:34:32.821Z,36.00
2018-04-15T04:35:32.794Z,40.00
2018-04-15T04:36:32.776Z,36.00
2018-04-15T04:37:32.758Z,36.00
2018-04-15T04:38:32.737Z,32.00
2018-04-15T04:39:32.722Z,36.00
2018-04-15T04:40:32.710Z,36.00
2018-04-15T04:41:32.681Z,44.00
2018-04-15T04:42:32.662Z,44.00
2018-04-15T04:43:32.645Z,52.00
2018-04-15T04:44:32.656Z,56.00
2018-04-15T04:45:32.610Z,60.00
2018-04-15T04:46:32.589Z,60.00
2018-04-15T04:47:32.670Z,68.00
2018-04-15T04:48:32.565Z,68.00
2018-04-15T04:49:32.535Z,76.00
2018-04-15T04:50:32.524Z,76.00
2018-04-15T04:51:32.498Z,88.00
2018-04-15T04:52:32.489Z,100.00
2018-04-15T04:53:32.459Z,112.00
2018-04-15T04:54:32.451Z,120.00
2018-04-15T04:55:32.421Z,132.00
2018-04-15T04:56:32.425Z,136.00
2018-04-15T04:57:32.388Z,140.00
2018-04-15T04:58:32.370Z,136.00
2018-04-15T04:59:32.369Z,132.00
2018-04-15T05:00:32.368Z,140.00
2018-04-15T05:01:32.312Z,160.00
2018-04-15T05:02:32.298Z,172.00
2018-04-15T05:03:32.277Z,180.00
2018-04-15T05:04:32.263Z,188.00
2018-04-15T05:05:32.241Z,192.00
2018-04-15T05:06:32.220Z,192.00
2018-04-15T05:07:32.202Z,200.00
2018-04-15T05:08:32.187Z,216.00
2018-04-15T05:09:32.168Z,228.00
2018-04-15T05:10:32.149Z,240.00
2018-04-15T05:11:32.239Z,252.00
2018-04-15T05:12:32.112Z,260.00
2018-04-15T05:13:32.091Z,276.00
2018-04-15T05:14:32.079Z,288.00
2018-04-15T05:15:32.056Z,300.00
2018-04-15T05:16:32.046Z,320.00
2018-04-15T05:17:32.021Z,332.00
2018-04-15T05:18:32.035Z,360.00
2018-04-15T05:19:31.990Z,380.00
2018-04-15T05:20:31.968Z,388.00
2018-04-15T05:21:31.953Z,376.00
2018-04-15T05:22:31.927Z,408.00
2018-04-15T05:23:31.911Z,408.00
2018-04-15T05:24:31.895Z,416.00
2018-04-15T05:25:31.874Z,420.00
2018-04-15T05:26:31.873Z,420.00
2018-04-15T05:27:31.837Z,420.00
2018-04-15T05:28:31.821Z,428.00
2018-04-15T05:29:31.804Z,432.00
2018-04-15T05:30:31.794Z,400.00
2018-04-15T05:31:31.768Z,312.00
2018-04-15T05:32:31.748Z,284.00
2018-04-15T05:33:31.756Z,280.00
2018-04-15T05:34:31.714Z,300.00
2018-04-15T05:35:31.725Z,392.00
2018-04-15T05:36:31.686Z,416.00
2018-04-15T05:37:31.710Z,428.00
2018-04-15T05:38:31.640Z,376.00
2018-04-15T05:39:31.624Z,344.00
2018-04-15T05:40:31.603Z,304.00
2018-04-15T05:41:31.583Z,308.00
2018-04-15T05:42:31.565Z,432.00
2018-04-15T05:43:31.549Z,536.00
2018-04-15T05:44:31.532Z,576.00
2018-04-15T05:45:31.517Z,592.00
2018-04-15T05:46:31.494Z,544.00
2018-04-15T05:47:31.478Z,492.00
2018-04-15T05:48:31.459Z,560.00
2018-04-15T05:49:31.451Z,560.00
2018-04-15T05:50:31.423Z,500.00
2018-04-15T05:51:31.403Z,424.00
2018-04-15T05:52:31.391Z,360.00
2018-04-15T05:53:31.382Z,448.00
2018-04-15T05:54:31.344Z,652.00
2018-04-15T05:55:31.327Z,776.00
2018-04-15T05:56:31.313Z,820.00
2018-04-15T05:57:31.455Z,904.00
2018-04-15T05:58:31.275Z,936.00
2018-04-15T05:59:31.314Z,996.00
2018-04-15T06:00:31.270Z,1076.00
2018-04-15T06:01:31.218Z,1040.00
2018-04-15T06:02:31.201Z,912.00
2018-04-15T06:03:31.200Z,964.00
2018-04-15T06:04:31.163Z,1000.00
2018-04-15T06:05:31.143Z,1136.00
2018-04-15T06:06:31.125Z,1264.00
2018-04-15T06:07:31.115Z,1188.00
2018-04-15T06:08:31.090Z,1208.00
2018-04-15T06:09:31.071Z,1292.00
2018-04-15T06:10:31.052Z,1268.00
2018-04-15T06:11:31.039Z,1240.00
2018-04-15T06:12:31.022Z,1116.00
2018-04-15T06:13:30.999Z,1016.00
2018-04-15T06:14:30.985Z,944.00
2018-04-15T06:15:30.998Z,948.00
2018-04-15T06:16:30.961Z,1076.00
2018-04-15T06:17:30.929Z,1180.00
2018-04-15T06:18:30.912Z,1252.00
2018-04-15T06:19:30.905Z,1344.00
2018-04-15T06:20:30.878Z,1712.00
2018-04-15T06:21:30.854Z,2168.00
2018-04-15T06:22:30.838Z,2244.00
2018-04-15T06:23:30.821Z,2100.00
2018-04-15T06:24:30.805Z,1816.00
2018-04-15T06:25:30.783Z,1448.00
2018-04-15T06:26:30.777Z,1356.00
2018-04-15T06:27:30.754Z,1376.00
2018-04-15T06:28:30.738Z,1092.00
2018-04-15T06:29:30.713Z,1068.00
2018-04-15T06:30:30.695Z,1180.00
2018-04-15T06:31:30.678Z,1252.00
2018-04-15T06:32:30.658Z,1192.00
2018-04-15T06:33:30.648Z,976.00
2018-04-15T06:34:30.622Z,1080.00
2018-04-15T06:35:30.742Z,1116.00
2018-04-15T06:36:30.588Z,1372.00
2018-04-15T06:37:30.570Z,1684.00
2018-04-15T06:38:30.657Z,1876.00
2018-04-15T06:39:30.545Z,1896.00
2018-04-15T06:40:30.517Z,2092.00
2018-04-15T06:41:30.503Z,2252.00
2018-04-15T06:42:30.479Z,2228.00
2018-04-15T06:43:30.463Z,2224.00
2018-04-15T06:44:30.447Z,2160.00
2018-04-15T06:45:30.428Z,2372.00
2018-04-15T06:46:30.566Z,2424.00
2018-04-15T06:47:30.392Z,2432.00
2018-04-15T06:48:30.375Z,2532.00
2018-04-15T06:49:30.361Z,2592.00
2018-04-15T06:50:30.341Z,2652.00
2018-04-15T06:51:30.323Z,2680.00
2018-04-15T06:52:30.307Z,2720.00
2018-04-15T06:53:30.285Z,2744.00
2018-04-15T06:54:30.270Z,2780.00
2018-04-15T06:55:30.259Z,2804.00
2018-04-15T06:56:30.236Z,2836.00
2018-04-15T06:57:30.215Z,2872.00
2018-04-15T06:58:30.205Z,2932.00
2018-04-15T06:59:30.192Z,2980.00
2018-04-15T07:00:30.163Z,2948.00
2018-04-15T07:01:30.201Z,2836.00
2018-04-15T07:02:30.286Z,2848.00
2018-04-15T07:03:30.119Z,3108.00
2018-04-15T07:04:30.097Z,3384.00
2018-04-15T07:05:30.078Z,3148.00
2018-04-15T07:06:30.061Z,2972.00
2018-04-15T07:07:30.040Z,3392.00
2018-04-15T07:08:30.022Z,3600.00
2018-04-15T07:09:30.072Z,3824.00
2018-04-15T07:10:29.992Z,3992.00
2018-04-15T07:11:29.973Z,4048.00
2018-04-15T07:12:29.957Z,4052.00
2018-04-15T07:13:29.933Z,4052.00
2018-04-15T07:14:29.921Z,3972.00
2018-04-15T07:15:29.903Z,3752.00
2018-04-15T07:16:29.944Z,3880.00
2018-04-15T07:17:29.867Z,4076.00
2018-04-15T07:18:29.934Z,4124.00
2018-04-15T07:19:29.831Z,4192.00
2018-04-15T07:20:29.816Z,4352.00
2018-04-15T07:21:29.804Z,4524.00
2018-04-15T07:22:29.782Z,4940.00
2018-04-15T07:23:29.767Z,5332.00
2018-04-15T07:24:29.762Z,5604.00
2018-04-15T07:25:29.737Z,6128.00
2018-04-15T07:26:29.711Z,6684.00
2018-04-15T07:27:29.698Z,7020.00
2018-04-15T07:28:29.693Z,7260.00
2018-04-15T07:29:29.670Z,7152.00
2018-04-15T07:30:29.661Z,7168.00
2018-04-15T07:31:29.633Z,7244.00
2018-04-15T07:32:29.621Z,6788.00
2018-04-15T07:33:29.591Z,6368.00
2018-04-15T07:34:29.576Z,6344.00
2018-04-15T07:35:29.560Z,6436.00
2018-04-15T07:36:29.603Z,6228.00
2018-04-15T07:37:29.593Z,6788.00
2018-04-15T07:38:29.513Z,7804.00
2018-04-15T07:39:29.507Z,9316.00
2018-04-15T07:40:29.522Z,10316.00
2018-04-15T07:41:29.471Z,10656.00
2018-04-15T07:42:29.450Z,9408.00
2018-04-15T07:43:29.424Z,9176.00
2018-04-15T07:44:29.412Z,9348.00
2018-04-15T07:45:29.394Z,7952.00
2018-04-15T07:46:29.373Z,7920.00
2018-04-15T07:47:29.365Z,8152.00
2018-04-15T07:48:29.353Z,8304.00
2018-04-15T07:49:29.324Z,7848.00
2018-04-15T07:50:29.338Z,7832.00
2018-04-15T07:51:29.289Z,7228.00
2018-04-15T07:52:29.281Z,7252.00
2018-04-15T07:53:29.268Z,7840.00
2018-04-15T07:54:29.238Z,8492.00
2018-04-15T07:55:29.225Z,8552.00
2018-04-15T07:56:29.208Z,8632.00
2018-04-15T07:57:29.205Z,8596.00
2018-04-15T07:58:29.175Z,8344.00
2018-04-15T07:59:29.160Z,8652.00
2018-04-15T08:00:29.149Z,8880.00
2018-04-15T08:01:29.147Z,9376.00
2018-04-15T08:02:29.110Z,9300.00
2018-04-15T08:03:29.095Z,10320.00
2018-04-15T08:04:29.161Z,11308.00
2018-04-15T08:05:29.071Z,12352.00
2018-04-15T08:06:29.048Z,12184.00
2018-04-15T08:07:29.084Z,12504.00
2018-04-15T08:08:29.013Z,12968.00
2018-04-15T08:09:28.999Z,13904.00
2018-04-15T08:10:28.981Z,13916.00
2018-04-15T08:11:28.966Z,13884.00
2018-04-15T08:12:28.962Z,14848.00
2018-04-15T08:13:28.937Z,16152.00
2018-04-15T08:14:28.923Z,15968.00
2018-04-15T08:15:28.907Z,23648.00
2018-04-15T08:16:28.892Z,20672.00
2018-04-15T08:17:28.879Z,32064.00
2018-04-15T08:18:28.858Z,43360.00
2018-04-15T08:19:28.845Z,48320.00
2018-04-15T08:20:28.845Z,49888.00
2018-04-15T08:21:28.811Z,27360.00
2018-04-15T08:22:28.800Z,37248.00
2018-04-15T08:23:28.812Z,35808.00
2018-04-15T08:24:28.770Z,31840.00
2018-04-15T08:25:28.765Z,29280.00
2018-04-15T08:26:28.753Z,26464.00
2018-04-15T08:27:28.730Z,40544.00
2018-04-15T08:28:28.719Z,35072.00
2018-04-15T08:29:28.712Z,30656.00
2018-04-15T08:30:28.696Z,29760.00
2018-04-15T08:31:28.675Z,37696.00
2018-04-15T08:32:28.663Z,26240.00
2018-04-15T08:33:28.653Z,28832.00
2018-04-15T08:34:28.640Z,30880.00
2018-04-15T08:35:28.635Z,27200.00
2018-04-15T08:36:28.634Z,25472.00
2018-04-15T08:37:28.607Z,23808.00
2018-04-15T08:38:28.593Z,21856.00
2018-04-15T08:39:28.583Z,20896.00
2018-04-15T08:40:28.578Z,20896.00
2018-04-15T08:41:28.553Z,25952.00
2018-04-15T08:42:28.557Z,35552.00
2018-04-15T08:43:28.532Z,72864.00
2018-04-15T08:44:28.524Z,62080.00
2018-04-15T08:45:28.513Z,43360.00
2018-04-15T08:46:28.508Z,32640.00
2018-04-15T08:47:28.488Z,29728.00
2018-04-15T08:48:28.477Z,26784.00
2018-04-15T08:49:28.468Z,22880.00
2018-04-15T08:50:28.465Z,20960.00
2018-04-15T08:51:28.445Z,20032.00
2018-04-15T08:52:28.435Z,19488.00
2018-04-15T08:53:28.421Z,18816.00
2018-04-15T08:54:28.483Z,18208.00
2018-04-15T08:55:28.408Z,18208.00
2018-04-15T08:56:28.402Z,19040.00
2018-04-15T08:57:28.414Z,20032.00
2018-04-15T08:58:28.371Z,20864.00
2018-04-15T08:59:28.359Z,22016.00
2018-04-15T09:00:28.345Z,22944.00
2018-04-15T09:01:28.341Z,23040.00
2018-04-15T09:02:28.337Z,22368.00
2018-04-15T09:03:28.319Z,22304.00
2018-04-15T09:04:28.302Z,21792.00
2018-04-15T09:05:28.290Z,30624.00
2018-04-15T09:06:28.280Z,51552.00
2018-04-15T09:07:28.270Z,32192.00
2018-04-15T09:08:28.253Z,39776.00
2018-04-15T09:09:28.258Z,61664.00
2018-04-15T09:10:28.302Z,75264.00
2018-04-15T09:11:28.224Z,43808.00
2018-04-15T09:12:28.213Z,43744.00
2018-04-15T09:13:28.204Z,47456.00
2018-04-15T09:14:28.208Z,39424.00
2018-04-15T09:15:28.183Z,34656.00
2018-04-15T09:16:28.182Z,34112.00
2018-04-15T09:17:28.171Z,36320.00
2018-04-15T09:18:28.152Z,35520.00
2018-04-15T09:19:28.150Z,34016.00
2018-04-15T09:20:28.142Z,35008.00
2018-04-15T09:21:28.128Z,32992.00
2018-04-15T09:22:28.120Z,31552.00
2018-04-15T09:23:28.236Z,41440.00
2018-04-15T09:24:28.107Z,46176.00
2018-04-15T09:25:28.100Z,91488.00
2018-04-15T09:26:28.128Z,92256.00
2018-04-15T09:27:28.070Z,84768.00
2018-04-15T09:28:28.069Z,90656.00
2018-04-15T09:29:28.053Z,85728.00
2018-04-15T09:30:28.047Z,80928.00
2018-04-15T09:31:28.039Z,80192.00
2018-04-15T09:32:28.039Z,79136.00
2018-04-15T09:33:28.037Z,13416.00
2018-04-15T09:34:28.020Z,15872.00
2018-04-15T09:35:28.017Z,15552.00
2018-04-15T09:36:28.012Z,16336.00
2018-04-15T09:37:28.010Z,20800.00
2018-04-15T09:38:27.992Z,26656.00
2018-04-15T09:39:28.014Z,57472.00
2018-04-15T09:40:27.982Z,25888.00
2018-04-15T09:41:27.969Z,41376.00
2018-04-15T09:42:27.976Z,101504.00
2018-04-15T09:43:27.959Z,98432.00
2018-04-15T09:44:27.954Z,59840.00
2018-04-15T09:45:27.947Z,84448.00
2018-04-15T09:46:28.027Z,86656.00
2018-04-15T09:47:27.934Z,90784.00
2018-04-15T09:48:27.931Z,89408.00
2018-04-15T09:49:27.922Z,91168.00
2018-04-15T09:50:27.923Z,29824.00
2018-04-15T09:51:27.924Z,25504.00
2018-04-15T09:52:27.918Z,40640.00
2018-04-15T09:53:27.912Z,100544.00
2018-04-15T09:54:27.915Z,107680.00
2018-04-15T09:55:27.906Z,101920.00
2018-04-15T09:56:27.906Z,99936.00
2018-04-15T09:57:28.013Z,91136.00
2018-04-15T09:58:27.898Z,96032.00
2018-04-15T09:59:27.894Z,98784.00
2018-04-15T10:00:27.904Z,21824.00
2018-04-15T10:01:27.891Z,15176.00
2018-04-15T10:02:27.889Z,16196.00
2018-04-15T10:03:27.892Z,47520.00
2018-04-15T10:04:27.884Z,115392.00
2018-04-15T10:05:27.886Z,86784.00
2018-04-15T10:06:27.882Z,64000.00
2018-04-15T10:07:27.889Z,106656.00
2018-04-15T10:08:27.873Z,107104.00
2018-04-15T10:09:27.875Z,109856.00
2018-04-15T10:10:27.885Z,92832.00
2018-04-15T10:11:27.864Z,17152.00
2018-04-15T10:12:27.863Z,12108.00
2018-04-15T10:13:27.918Z,10864.00
2018-04-15T10:14:27.861Z,9844.00
2018-04-15T10:15:27.871Z,9500.00
2018-04-15T10:16:27.855Z,10344.00
2018-04-15T10:17:27.863Z,10348.00
2018-04-15T10:18:27.872Z,10356.00
2018-04-15T10:19:27.853Z,11308.00
2018-04-15T10:20:27.859Z,12860.00
2018-04-15T10:21:27.839Z,14532.00
2018-04-15T10:22:27.836Z,16092.00
2018-04-15T10:23:27.848Z,16468.00
2018-04-15T10:24:27.831Z,16560.00
2018-04-15T10:25:27.819Z,17248.00
2018-04-15T10:26:27.871Z,15064.00
2018-04-15T10:27:27.812Z,11960.00
2018-04-15T10:28:27.808Z,11120.00
2018-04-15T10:29:27.793Z,13292.00
2018-04-15T10:30:27.795Z,29568.00
2018-04-15T10:31:27.781Z,25920.00
2018-04-15T10:32:27.773Z,21088.00
2018-04-15T10:33:27.767Z,19616.00
2018-04-15T10:34:27.761Z,19328.00
2018-04-15T10:35:27.757Z,18176.00
2018-04-15T10:36:27.832Z,18464.00
2018-04-15T10:37:27.743Z,21728.00
2018-04-15T10:38:27.727Z,29632.00
2018-04-15T10:39:27.809Z,68416.00
2018-04-15T10:40:27.736Z,45088.00
2018-04-15T10:41:27.716Z,32736.00
2018-04-15T10:42:27.708Z,23296.00
2018-04-15T10:43:27.714Z,21568.00
2018-04-15T10:44:27.694Z,20160.00
2018-04-15T10:45:27.678Z,23264.00
2018-04-15T10:46:27.671Z,99968.00
2018-04-15T10:47:27.679Z,99456.00
2018-04-15T10:48:27.658Z,102592.00
2018-04-15T10:49:27.649Z,101600.00
2018-04-15T10:50:27.641Z,97312.00
2018-04-15T10:51:27.631Z,26176.00
2018-04-15T10:52:27.635Z,97376.00
2018-04-15T10:53:27.621Z,50912.00
2018-04-15T10:54:27.626Z,26080.00
2018-04-15T10:55:27.614Z,18112.00
2018-04-15T10:56:27.604Z,16804.00
2018-04-15T10:57:27.629Z,18336.00
2018-04-15T10:58:27.593Z,25504.00
2018-04-15T10:59:27.591Z,77952.00
2018-04-15T11:00:27.652Z,85888.00
2018-04-15T11:01:27.594Z,55264.00
2018-04-15T11:02:27.588Z,73472.00
2018-04-15T11:03:27.577Z,30816.00
2018-04-15T11:04:27.568Z,28704.00
2018-04-15T11:05:27.557Z,20864.00
2018-04-15T11:06:27.564Z,18400.00
2018-04-15T11:07:27.550Z,17920.00
2018-04-15T11:08:27.542Z,18080.00
2018-04-15T11:09:27.536Z,18048.00
2018-04-15T11:10:27.599Z,21536.00
2018-04-15T11:11:27.528Z,89920.00
2018-04-15T11:12:27.528Z,26528.00
2018-04-15T11:13:27.524Z,20512.00
2018-04-15T11:14:27.519Z,19872.00
2018-04-15T11:15:27.527Z,26688.00
2018-04-15T11:16:27.507Z,82464.00
2018-04-15T11:17:27.496Z,49248.00
2018-04-15T11:18:27.498Z,60576.00
2018-04-15T11:19:27.493Z,86400.00
2018-04-15T11:20:27.487Z,25120.00
2018-04-15T11:21:27.484Z,82848.00
2018-04-15T11:22:27.483Z,86848.00
2018-04-15T11:23:27.584Z,18624.00
2018-04-15T11:24:27.467Z,17888.00
2018-04-15T11:25:27.456Z,17984.00
2018-04-15T11:26:27.480Z,46880.00
2018-04-15T11:27:27.450Z,37568.00
2018-04-15T11:28:27.446Z,97792.00
2018-04-15T11:29:27.445Z,86400.00
2018-04-15T11:30:27.437Z,90656.00
2018-04-15T11:31:27.434Z,90496.00
2018-04-15T11:32:27.462Z,84736.00
2018-04-15T11:33:27.429Z,84096.00
2018-04-15T11:34:27.423Z,79648.00
2018-04-15T11:35:27.423Z,77472.00
2018-04-15T11:36:27.449Z,81824.00
2018-04-15T11:37:27.416Z,85952.00
2018-04-15T11:38:27.469Z,83808.00
2018-04-15T11:39:27.405Z,84544.00
2018-04-15T11:40:27.408Z,83104.00
2018-04-15T11:41:27.400Z,84800.00
2018-04-15T11:42:27.419Z,83680.00
2018-04-15T11:43:27.391Z,86144.00
2018-04-15T11:44:27.391Z,88384.00
2018-04-15T11:45:27.393Z,86144.00
2018-04-15T11:46:27.391Z,86688.00
2018-04-15T11:47:27.385Z,85728.00
2018-04-15T11:48:27.387Z,81664.00
2018-04-15T11:49:27.377Z,10700.00
2018-04-15T11:50:27.375Z,10700.00
2018-04-15T11:51:27.382Z,9964.00
2018-04-15T11:52:27.368Z,10508.00
2018-04-15T11:53:27.362Z,13652.00
2018-04-15T11:54:27.361Z,16096.00
2018-04-15T11:55:27.368Z,16004.00
2018-04-15T11:56:27.350Z,14952.00
2018-04-15T11:57:27.452Z,13140.00
2018-04-15T11:58:27.346Z,12260.00
2018-04-15T11:59:27.338Z,11756.00
2018-04-15T12:00:27.326Z,11532.00
2018-04-15T12:01:27.323Z,12348.00
2018-04-15T12:02:27.321Z,12484.00
2018-04-15T12:03:27.311Z,12196.00
2018-04-15T12:04:27.300Z,11656.00
2018-04-15T12:05:27.289Z,12472.00
2018-04-15T12:06:27.292Z,13560.00
2018-04-15T12:07:27.393Z,14696.00
2018-04-15T12:08:27.267Z,14888.00
2018-04-15T12:09:27.259Z,15740.00
2018-04-15T12:10:27.262Z,16928.00
2018-04-15T12:11:27.249Z,18400.00
2018-04-15T12:12:27.232Z,18816.00
2018-04-15T12:13:27.228Z,17200.00
2018-04-15T12:14:27.221Z,16000.00
2018-04-15T12:15:27.217Z,14588.00
2018-04-15T12:16:27.209Z,13148.00
2018-04-15T12:17:27.200Z,14056.00
2018-04-15T12:18:27.199Z,15784.00
2018-04-15T12:19:27.177Z,15704.00
2018-04-15T12:20:27.168Z,15940.00
2018-04-15T12:21:27.168Z,15280.00
2018-04-15T12:22:27.150Z,14740.00
2018-04-15T12:23:27.158Z,14860.00
2018-04-15T12:24:27.149Z,13976.00